sensor_id;sensor_type;location;lat;lon;timestamp;P1;durP1;ratioP1;P2;durP2;ratioP2
79399;SDS011;68856;45.586;10.264;2023-08-31T00:00:44;1.15;;;0.95;;
79399;SDS011;68856;45.586;10.264;2023-08-31T00:03:10;2.03;;;1.20;;
79399;SDS011;68856;45.586;10.264;2023-08-31T00:05:37;2.28;;;1.33;;
79399;SDS011;68856;45.586;10.264;2023-08-31T00:08:05;1.58;;;1.10;;
79399;SDS011;68856;45.586;10.264;2023-08-31T00:10:31;4.47;;;1.27;;
79399;SDS011;68856;45.586;10.264;2023-08-31T00:12:57;3.25;;;1.30;;
79399;SDS011;68856;45.586;10.264;2023-08-31T00:15:24;3.13;;;2.08;;
79399;SDS011;68856;45.586;10.264;2023-08-31T00:17:50;1.20;;;0.90;;
79399;SDS011;68856;45.586;10.264;2023-08-31T00:20:16;3.78;;;1.00;;
79399;SDS011;68856;45.586;10.264;2023-08-31T00:22:42;2.13;;;1.10;;
79399;SDS011;68856;45.586;10.264;2023-08-31T00:25:08;2.90;;;1.60;;
79399;SDS011;68856;45.586;10.264;2023-08-31T00:27:34;2.92;;;1.17;;
79399;SDS011;68856;45.586;10.264;2023-08-31T00:30:05;5.05;;;1.63;;
79399;SDS011;68856;45.586;10.264;2023-08-31T00:35:02;4.38;;;1.52;;
79399;SDS011;68856;45.586;10.264;2023-08-31T00:37:29;2.47;;;1.00;;
79399;SDS011;68856;45.586;10.264;2023-08-31T00:39:55;1.50;;;1.08;;
79399;SDS011;68856;45.586;10.264;2023-08-31T00:42:21;2.05;;;1.50;;
79399;SDS011;68856;45.586;10.264;2023-08-31T00:44:49;2.75;;;1.02;;
79399;SDS011;68856;45.586;10.264;2023-08-31T00:47:16;4.40;;;0.98;;
79399;SDS011;68856;45.586;10.264;2023-08-31T00:49:42;1.67;;;0.98;;
79399;SDS011;68856;45.586;10.264;2023-08-31T00:52:08;2.55;;;1.25;;
79399;SDS011;68856;45.586;10.264;2023-08-31T00:54:35;1.60;;;0.80;;
79399;SDS011;68856;45.586;10.264;2023-08-31T00:57:01;1.17;;;1.08;;
79399;SDS011;68856;45.586;10.264;2023-08-31T00:59:28;1.67;;;1.10;;
79399;SDS011;68856;45.586;10.264;2023-08-31T01:02:16;1.00;;;0.70;;
79399;SDS011;68856;45.586;10.264;2023-08-31T01:12:18;1.92;;;1.38;;
79399;SDS011;68856;45.586;10.264;2023-08-31T01:14:48;3.90;;;1.42;;
79399;SDS011;68856;45.586;10.264;2023-08-31T01:17:16;3.25;;;1.30;;
79399;SDS011;68856;45.586;10.264;2023-08-31T01:19:50;2.13;;;1.25;;
79399;SDS011;68856;45.586;10.264;2023-08-31T01:23:02;1.33;;;1.20;;
79399;SDS011;68856;45.586;10.264;2023-08-31T01:25:03;2.08;;;1.45;;
79399;SDS011;68856;45.586;10.264;2023-08-31T01:27:30;2.63;;;1.40;;
79399;SDS011;68856;45.586;10.264;2023-08-31T01:29:57;1.08;;;0.98;;
79399;SDS011;68856;45.586;10.264;2023-08-31T01:32:23;3.13;;;1.20;;
79399;SDS011;68856;45.586;10.264;2023-08-31T01:34:49;1.83;;;1.40;;
79399;SDS011;68856;45.586;10.264;2023-08-31T01:37:17;2.10;;;1.02;;
79399;SDS011;68856;45.586;10.264;2023-08-31T01:39:52;2.85;;;1.30;;
79399;SDS011;68856;45.586;10.264;2023-08-31T01:42:20;3.35;;;1.27;;
79399;SDS011;68856;45.586;10.264;2023-08-31T01:44:46;1.10;;;1.00;;
79399;SDS011;68856;45.586;10.264;2023-08-31T01:47:14;1.45;;;1.35;;
79399;SDS011;68856;45.586;10.264;2023-08-31T01:49:42;1.88;;;1.25;;
79399;SDS011;68856;45.586;10.264;2023-08-31T01:52:08;2.00;;;1.30;;
79399;SDS011;68856;45.586;10.264;2023-08-31T01:54:34;2.20;;;1.40;;
79399;SDS011;68856;45.586;10.264;2023-08-31T01:57:02;2.28;;;1.48;;
79399;SDS011;68856;45.586;10.264;2023-08-31T01:59:29;2.35;;;1.27;;
79399;SDS011;68856;45.586;10.264;2023-08-31T02:01:55;2.42;;;1.20;;
79399;SDS011;68856;45.586;10.264;2023-08-31T02:04:21;2.03;;;1.30;;
79399;SDS011;68856;45.586;10.264;2023-08-31T02:06:47;2.60;;;1.35;;
79399;SDS011;68856;45.586;10.264;2023-08-31T02:09:14;3.10;;;1.23;;
79399;SDS011;68856;45.586;10.264;2023-08-31T02:11:40;2.67;;;1.33;;
79399;SDS011;68856;45.586;10.264;2023-08-31T02:14:06;2.30;;;1.10;;
79399;SDS011;68856;45.586;10.264;2023-08-31T02:16:33;4.00;;;2.00;;
79399;SDS011;68856;45.586;10.264;2023-08-31T02:18:59;2.25;;;1.30;;
79399;SDS011;68856;45.586;10.264;2023-08-31T02:21:25;5.05;;;1.20;;
79399;SDS011;68856;45.586;10.264;2023-08-31T02:23:51;3.38;;;1.38;;
79399;SDS011;68856;45.586;10.264;2023-08-31T02:26:17;5.97;;;1.48;;
79399;SDS011;68856;45.586;10.264;2023-08-31T02:28:43;2.53;;;1.30;;
79399;SDS011;68856;45.586;10.264;2023-08-31T02:31:10;3.97;;;1.45;;
79399;SDS011;68856;45.586;10.264;2023-08-31T02:33:38;3.03;;;1.45;;
79399;SDS011;68856;45.586;10.264;2023-08-31T02:36:05;2.28;;;1.27;;
79399;SDS011;68856;45.586;10.264;2023-08-31T02:38:31;3.38;;;1.30;;
79399;SDS011;68856;45.586;10.264;2023-08-31T02:40:57;1.85;;;1.50;;
79399;SDS011;68856;45.586;10.264;2023-08-31T02:43:23;3.08;;;1.45;;
79399;SDS011;68856;45.586;10.264;2023-08-31T02:45:51;2.15;;;1.17;;
79399;SDS011;68856;45.586;10.264;2023-08-31T02:48:24;3.50;;;1.60;;
79399;SDS011;68856;45.586;10.264;2023-08-31T02:50:50;1.40;;;1.27;;
79399;SDS011;68856;45.586;10.264;2023-08-31T02:53:16;3.58;;;1.65;;
79399;SDS011;68856;45.586;10.264;2023-08-31T02:55:42;2.95;;;1.63;;
79399;SDS011;68856;45.586;10.264;2023-08-31T02:58:08;1.98;;;1.50;;
79399;SDS011;68856;45.586;10.264;2023-08-31T03:00:34;2.10;;;1.58;;
79399;SDS011;68856;45.586;10.264;2023-08-31T03:03:04;1.35;;;1.17;;
79399;SDS011;68856;45.586;10.264;2023-08-31T03:05:30;2.25;;;1.45;;
79399;SDS011;68856;45.586;10.264;2023-08-31T03:07:56;2.20;;;1.70;;
79399;SDS011;68856;45.586;10.264;2023-08-31T03:10:23;1.98;;;1.60;;
79399;SDS011;68856;45.586;10.264;2023-08-31T03:12:49;1.58;;;1.45;;
79399;SDS011;68856;45.586;10.264;2023-08-31T03:15:15;1.85;;;1.48;;
79399;SDS011;68856;45.586;10.264;2023-08-31T03:17:41;2.53;;;1.80;;
79399;SDS011;68856;45.586;10.264;2023-08-31T03:20:07;3.63;;;1.83;;
79399;SDS011;68856;45.586;10.264;2023-08-31T03:22:34;4.38;;;1.63;;
79399;SDS011;68856;45.586;10.264;2023-08-31T03:25:01;2.22;;;1.60;;
79399;SDS011;68856;45.586;10.264;2023-08-31T03:27:27;3.10;;;1.45;;
79399;SDS011;68856;45.586;10.264;2023-08-31T03:29:53;2.30;;;1.50;;
79399;SDS011;68856;45.586;10.264;2023-08-31T03:32:19;1.73;;;1.48;;
79399;SDS011;68856;45.586;10.264;2023-08-31T03:34:45;4.75;;;1.75;;
79399;SDS011;68856;45.586;10.264;2023-08-31T03:37:11;2.33;;;1.63;;
79399;SDS011;68856;45.586;10.264;2023-08-31T03:39:38;6.60;;;2.28;;
79399;SDS011;68856;45.586;10.264;2023-08-31T03:42:06;2.85;;;1.90;;
79399;SDS011;68856;45.586;10.264;2023-08-31T03:44:32;2.70;;;1.67;;
79399;SDS011;68856;45.586;10.264;2023-08-31T03:46:58;3.50;;;2.00;;
79399;SDS011;68856;45.586;10.264;2023-08-31T03:49:24;2.13;;;1.73;;
79399;SDS011;68856;45.586;10.264;2023-08-31T03:51:50;4.95;;;2.13;;
79399;SDS011;68856;45.586;10.264;2023-08-31T03:54:18;3.50;;;2.17;;
79399;SDS011;68856;45.586;10.264;2023-08-31T03:56:44;3.65;;;1.83;;
79399;SDS011;68856;45.586;10.264;2023-08-31T03:59:12;5.78;;;1.90;;
79399;SDS011;68856;45.586;10.264;2023-08-31T04:01:38;3.53;;;2.22;;
79399;SDS011;68856;45.586;10.264;2023-08-31T04:04:05;4.55;;;2.35;;
79399;SDS011;68856;45.586;10.264;2023-08-31T04:06:31;2.72;;;1.90;;
79399;SDS011;68856;45.586;10.264;2023-08-31T04:08:57;4.63;;;2.20;;
79399;SDS011;68856;45.586;10.264;2023-08-31T04:11:24;2.47;;;1.80;;
79399;SDS011;68856;45.586;10.264;2023-08-31T04:13:51;3.50;;;1.98;;
79399;SDS011;68856;45.586;10.264;2023-08-31T04:16:17;2.05;;;1.70;;
79399;SDS011;68856;45.586;10.264;2023-08-31T04:18:43;4.05;;;2.33;;
79399;SDS011;68856;45.586;10.264;2023-08-31T04:21:12;6.53;;;1.80;;
79399;SDS011;68856;45.586;10.264;2023-08-31T04:23:38;2.70;;;1.90;;
79399;SDS011;68856;45.586;10.264;2023-08-31T04:26:11;3.05;;;2.38;;
79399;SDS011;68856;45.586;10.264;2023-08-31T04:28:42;3.28;;;2.88;;
79399;SDS011;68856;45.586;10.264;2023-08-31T04:31:09;2.92;;;2.20;;
79399;SDS011;68856;45.586;10.264;2023-08-31T04:33:35;3.17;;;2.35;;
79399;SDS011;68856;45.586;10.264;2023-08-31T04:36:01;4.32;;;2.05;;
79399;SDS011;68856;45.586;10.264;2023-08-31T04:38:28;5.47;;;2.28;;
79399;SDS011;68856;45.586;10.264;2023-08-31T04:40:57;3.60;;;2.50;;
79399;SDS011;68856;45.586;10.264;2023-08-31T04:43:24;5.68;;;2.65;;
79399;SDS011;68856;45.586;10.264;2023-08-31T04:45:51;4.57;;;2.70;;
79399;SDS011;68856;45.586;10.264;2023-08-31T04:48:17;3.97;;;2.55;;
79399;SDS011;68856;45.586;10.264;2023-08-31T04:50:43;3.70;;;2.40;;
79399;SDS011;68856;45.586;10.264;2023-08-31T04:53:09;5.93;;;2.58;;
79399;SDS011;68856;45.586;10.264;2023-08-31T04:55:35;8.48;;;2.88;;
79399;SDS011;68856;45.586;10.264;2023-08-31T04:58:02;5.22;;;2.50;;
79399;SDS011;68856;45.586;10.264;2023-08-31T05:00:29;2.72;;;2.30;;
79399;SDS011;68856;45.586;10.264;2023-08-31T05:02:55;4.30;;;2.25;;
79399;SDS011;68856;45.586;10.264;2023-08-31T05:05:21;2.75;;;2.30;;
79399;SDS011;68856;45.586;10.264;2023-08-31T05:07:47;7.00;;;2.28;;
79399;SDS011;68856;45.586;10.264;2023-08-31T05:10:13;5.35;;;2.42;;
79399;SDS011;68856;45.586;10.264;2023-08-31T05:12:39;2.33;;;1.65;;
79399;SDS011;68856;45.586;10.264;2023-08-31T05:15:06;5.82;;;2.60;;
79399;SDS011;68856;45.586;10.264;2023-08-31T05:17:32;3.97;;;1.83;;
79399;SDS011;68856;45.586;10.264;2023-08-31T05:19:59;5.45;;;2.47;;
79399;SDS011;68856;45.586;10.264;2023-08-31T05:22:25;2.63;;;2.28;;
79399;SDS011;68856;45.586;10.264;2023-08-31T05:24:51;4.13;;;2.03;;
79399;SDS011;68856;45.586;10.264;2023-08-31T05:27:17;4.15;;;1.90;;
79399;SDS011;68856;45.586;10.264;2023-08-31T05:29:43;5.75;;;2.05;;
79399;SDS011;68856;45.586;10.264;2023-08-31T05:32:09;4.03;;;2.03;;
79399;SDS011;68856;45.586;10.264;2023-08-31T05:34:35;3.28;;;2.08;;
79399;SDS011;68856;45.586;10.264;2023-08-31T05:37:04;2.08;;;1.88;;
79399;SDS011;68856;45.586;10.264;2023-08-31T05:39:30;4.25;;;1.92;;
79399;SDS011;68856;45.586;10.264;2023-08-31T05:41:56;3.53;;;1.90;;
79399;SDS011;68856;45.586;10.264;2023-08-31T05:44:22;2.00;;;1.80;;
79399;SDS011;68856;45.586;10.264;2023-08-31T05:46:48;2.72;;;1.77;;
79399;SDS011;68856;45.586;10.264;2023-08-31T05:49:14;3.28;;;1.88;;
79399;SDS011;68856;45.586;10.264;2023-08-31T05:51:40;3.20;;;1.90;;
79399;SDS011;68856;45.586;10.264;2023-08-31T05:54:06;2.33;;;1.90;;
79399;SDS011;68856;45.586;10.264;2023-08-31T05:56:37;5.25;;;2.22;;
79399;SDS011;68856;45.586;10.264;2023-08-31T05:59:05;4.00;;;2.22;;
79399;SDS011;68856;45.586;10.264;2023-08-31T06:01:31;3.58;;;2.05;;
79399;SDS011;68856;45.586;10.264;2023-08-31T06:03:57;7.20;;;2.50;;
79399;SDS011;68856;45.586;10.264;2023-08-31T06:06:23;1.85;;;1.75;;
79399;SDS011;68856;45.586;10.264;2023-08-31T06:08:49;4.65;;;2.10;;
79399;SDS011;68856;45.586;10.264;2023-08-31T06:11:16;6.85;;;2.25;;
79399;SDS011;68856;45.586;10.264;2023-08-31T06:13:42;4.00;;;2.22;;
79399;SDS011;68856;45.586;10.264;2023-08-31T06:16:08;3.60;;;2.28;;
79399;SDS011;68856;45.586;10.264;2023-08-31T06:18:34;4.47;;;2.33;;
79399;SDS011;68856;45.586;10.264;2023-08-31T06:21:00;3.65;;;2.22;;
79399;SDS011;68856;45.586;10.264;2023-08-31T06:23:26;4.63;;;2.40;;
79399;SDS011;68856;45.586;10.264;2023-08-31T06:25:52;3.63;;;2.30;;
79399;SDS011;68856;45.586;10.264;2023-08-31T06:28:18;3.15;;;2.35;;
79399;SDS011;68856;45.586;10.264;2023-08-31T06:30:44;6.45;;;2.53;;
79399;SDS011;68856;45.586;10.264;2023-08-31T06:33:14;4.93;;;2.65;;
79399;SDS011;68856;45.586;10.264;2023-08-31T06:35:40;6.47;;;3.25;;
79399;SDS011;68856;45.586;10.264;2023-08-31T06:38:06;3.58;;;2.85;;
79399;SDS011;68856;45.586;10.264;2023-08-31T06:40:32;4.03;;;2.70;;
79399;SDS011;68856;45.586;10.264;2023-08-31T06:42:59;4.18;;;2.60;;
79399;SDS011;68856;45.586;10.264;2023-08-31T06:45:25;4.25;;;2.88;;
79399;SDS011;68856;45.586;10.264;2023-08-31T06:47:51;6.10;;;2.70;;
79399;SDS011;68856;45.586;10.264;2023-08-31T06:50:17;3.95;;;2.92;;
79399;SDS011;68856;45.586;10.264;2023-08-31T06:52:43;3.13;;;2.83;;
79399;SDS011;68856;45.586;10.264;2023-08-31T06:55:11;3.80;;;2.95;;
79399;SDS011;68856;45.586;10.264;2023-08-31T06:57:38;5.20;;;2.42;;
79399;SDS011;68856;45.586;10.264;2023-08-31T07:00:04;3.20;;;2.55;;
79399;SDS011;68856;45.586;10.264;2023-08-31T07:02:32;4.85;;;2.70;;
79399;SDS011;68856;45.586;10.264;2023-08-31T07:04:59;5.38;;;2.70;;
79399;SDS011;68856;45.586;10.264;2023-08-31T07:07:26;4.68;;;2.70;;
79399;SDS011;68856;45.586;10.264;2023-08-31T07:09:52;4.03;;;2.40;;
79399;SDS011;68856;45.586;10.264;2023-08-31T07:12:19;3.65;;;2.50;;
79399;SDS011;68856;45.586;10.264;2023-08-31T07:14:45;4.03;;;2.40;;
79399;SDS011;68856;45.586;10.264;2023-08-31T07:17:11;4.75;;;2.95;;
79399;SDS011;68856;45.586;10.264;2023-08-31T07:19:38;3.17;;;2.83;;
79399;SDS011;68856;45.586;10.264;2023-08-31T07:22:04;3.60;;;2.63;;
79399;SDS011;68856;45.586;10.264;2023-08-31T07:24:31;4.72;;;2.50;;
79399;SDS011;68856;45.586;10.264;2023-08-31T07:26:59;2.40;;;2.03;;
79399;SDS011;68856;45.586;10.264;2023-08-31T07:29:25;3.83;;;2.08;;
79399;SDS011;68856;45.586;10.264;2023-08-31T07:31:51;3.92;;;2.40;;
79399;SDS011;68856;45.586;10.264;2023-08-31T07:34:17;5.55;;;2.40;;
79399;SDS011;68856;45.586;10.264;2023-08-31T07:36:43;3.72;;;2.35;;
79399;SDS011;68856;45.586;10.264;2023-08-31T07:39:10;4.38;;;2.42;;
79399;SDS011;68856;45.586;10.264;2023-08-31T07:41:36;3.13;;;2.10;;
79399;SDS011;68856;45.586;10.264;2023-08-31T07:44:02;3.60;;;2.40;;
79399;SDS011;68856;45.586;10.264;2023-08-31T07:46:28;3.35;;;2.30;;
79399;SDS011;68856;45.586;10.264;2023-08-31T07:48:54;4.57;;;2.58;;
79399;SDS011;68856;45.586;10.264;2023-08-31T07:51:20;8.07;;;3.15;;
79399;SDS011;68856;45.586;10.264;2023-08-31T07:53:48;7.90;;;2.47;;
79399;SDS011;68856;45.586;10.264;2023-08-31T07:56:15;2.97;;;2.20;;
79399;SDS011;68856;45.586;10.264;2023-08-31T07:58:41;2.33;;;1.95;;
79399;SDS011;68856;45.586;10.264;2023-08-31T08:01:07;3.17;;;2.17;;
79399;SDS011;68856;45.586;10.264;2023-08-31T08:03:33;3.40;;;2.10;;
79399;SDS011;68856;45.586;10.264;2023-08-31T08:05:59;3.25;;;2.10;;
79399;SDS011;68856;45.586;10.264;2023-08-31T08:08:25;6.18;;;2.42;;
79399;SDS011;68856;45.586;10.264;2023-08-31T08:10:52;3.33;;;2.20;;
79399;SDS011;68856;45.586;10.264;2023-08-31T08:13:18;2.17;;;1.75;;
79399;SDS011;68856;45.586;10.264;2023-08-31T08:15:45;3.97;;;2.30;;
79399;SDS011;68856;45.586;10.264;2023-08-31T08:18:11;3.67;;;2.00;;
79399;SDS011;68856;45.586;10.264;2023-08-31T08:20:37;4.47;;;2.00;;
79399;SDS011;68856;45.586;10.264;2023-08-31T08:23:04;5.07;;;2.00;;
79399;SDS011;68856;45.586;10.264;2023-08-31T08:25:30;2.38;;;1.67;;
79399;SDS011;68856;45.586;10.264;2023-08-31T08:27:56;3.42;;;1.73;;
79399;SDS011;68856;45.586;10.264;2023-08-31T08:30:23;3.08;;;2.05;;
79399;SDS011;68856;45.586;10.264;2023-08-31T08:32:49;1.65;;;1.50;;
79399;SDS011;68856;45.586;10.264;2023-08-31T08:35:15;1.77;;;1.58;;
79399;SDS011;68856;45.586;10.264;2023-08-31T08:37:41;3.28;;;1.80;;
79399;SDS011;68856;45.586;10.264;2023-08-31T08:40:07;3.08;;;1.90;;
79399;SDS011;68856;45.586;10.264;2023-08-31T08:42:35;4.65;;;1.80;;
79399;SDS011;68856;45.586;10.264;2023-08-31T08:45:03;5.00;;;1.92;;
79399;SDS011;68856;45.586;10.264;2023-08-31T08:47:31;3.15;;;1.90;;
79399;SDS011;68856;45.586;10.264;2023-08-31T08:49:58;2.90;;;1.65;;
79399;SDS011;68856;45.586;10.264;2023-08-31T08:52:25;5.50;;;2.05;;
79399;SDS011;68856;45.586;10.264;2023-08-31T08:54:52;3.13;;;1.73;;
79399;SDS011;68856;45.586;10.264;2023-08-31T08:57:18;2.47;;;1.80;;
79399;SDS011;68856;45.586;10.264;2023-08-31T08:59:44;2.33;;;1.58;;
79399;SDS011;68856;45.586;10.264;2023-08-31T09:02:11;3.38;;;1.85;;
79399;SDS011;68856;45.586;10.264;2023-08-31T09:04:37;2.50;;;1.85;;
79399;SDS011;68856;45.586;10.264;2023-08-31T09:07:03;3.65;;;1.83;;
79399;SDS011;68856;45.586;10.264;2023-08-31T09:09:30;2.72;;;1.70;;
79399;SDS011;68856;45.586;10.264;2023-08-31T09:11:57;8.18;;;1.80;;
79399;SDS011;68856;45.586;10.264;2023-08-31T09:14:32;3.88;;;2.03;;
79399;SDS011;68856;45.586;10.264;2023-08-31T09:16:58;3.35;;;2.03;;
79399;SDS011;68856;45.586;10.264;2023-08-31T09:19:25;10.48;;;2.50;;
79399;SDS011;68856;45.586;10.264;2023-08-31T09:21:55;2.67;;;1.83;;
79399;SDS011;68856;45.586;10.264;2023-08-31T09:24:22;3.47;;;2.28;;
79399;SDS011;68856;45.586;10.264;2023-08-31T09:26:56;6.82;;;1.80;;
79399;SDS011;68856;45.586;10.264;2023-08-31T09:29:22;4.38;;;2.10;;
79399;SDS011;68856;45.586;10.264;2023-08-31T09:31:48;4.40;;;2.40;;
79399;SDS011;68856;45.586;10.264;2023-08-31T09:34:15;4.47;;;1.98;;
79399;SDS011;68856;45.586;10.264;2023-08-31T09:36:42;5.13;;;1.90;;
79399;SDS011;68856;45.586;10.264;2023-08-31T09:39:08;6.65;;;2.17;;
79399;SDS011;68856;45.586;10.264;2023-08-31T09:41:35;4.40;;;2.15;;
79399;SDS011;68856;45.586;10.264;2023-08-31T09:44:15;3.83;;;2.00;;
79399;SDS011;68856;45.586;10.264;2023-08-31T09:46:42;3.35;;;1.75;;
79399;SDS011;68856;45.586;10.264;2023-08-31T09:49:08;3.78;;;1.63;;
79399;SDS011;68856;45.586;10.264;2023-08-31T09:51:35;4.32;;;1.85;;
79399;SDS011;68856;45.586;10.264;2023-08-31T09:54:01;3.67;;;1.83;;
79399;SDS011;68856;45.586;10.264;2023-08-31T09:56:29;4.95;;;2.10;;
79399;SDS011;68856;45.586;10.264;2023-08-31T09:58:59;5.03;;;1.83;;
79399;SDS011;68856;45.586;10.264;2023-08-31T10:01:25;1.75;;;1.65;;
79399;SDS011;68856;45.586;10.264;2023-08-31T10:03:51;6.72;;;3.20;;
79399;SDS011;68856;45.586;10.264;2023-08-31T10:06:18;7.90;;;1.90;;
79399;SDS011;68856;45.586;10.264;2023-08-31T10:08:44;2.53;;;1.42;;
79399;SDS011;68856;45.586;10.264;2023-08-31T10:11:10;2.17;;;1.33;;
79399;SDS011;68856;45.586;10.264;2023-08-31T10:13:40;10.90;;;1.95;;
79399;SDS011;68856;45.586;10.264;2023-08-31T10:16:06;3.53;;;1.70;;
79399;SDS011;68856;45.586;10.264;2023-08-31T10:18:34;3.58;;;1.67;;
79399;SDS011;68856;45.586;10.264;2023-08-31T10:21:01;2.25;;;1.38;;
79399;SDS011;68856;45.586;10.264;2023-08-31T10:23:28;3.45;;;1.48;;
79399;SDS011;68856;45.586;10.264;2023-08-31T10:28:21;3.17;;;1.77;;
79399;SDS011;68856;45.586;10.264;2023-08-31T10:31:06;2.30;;;1.58;;
79399;SDS011;68856;45.586;10.264;2023-08-31T10:33:39;4.63;;;2.03;;
79399;SDS011;68856;45.586;10.264;2023-08-31T10:36:11;2.72;;;2.00;;
79399;SDS011;68856;45.586;10.264;2023-08-31T10:38:38;3.53;;;2.53;;
79399;SDS011;68856;45.586;10.264;2023-08-31T10:44:17;4.07;;;2.65;;
79399;SDS011;68856;45.586;10.264;2023-08-31T10:46:26;6.50;;;1.95;;
79399;SDS011;68856;45.586;10.264;2023-08-31T10:48:57;3.97;;;1.67;;
79399;SDS011;68856;45.586;10.264;2023-08-31T10:51:24;3.50;;;2.05;;
79399;SDS011;68856;45.586;10.264;2023-08-31T10:53:50;6.93;;;2.33;;
79399;SDS011;68856;45.586;10.264;2023-08-31T10:56:17;4.43;;;1.80;;
79399;SDS011;68856;45.586;10.264;2023-08-31T10:58:53;4.57;;;2.80;;
79399;SDS011;68856;45.586;10.264;2023-08-31T11:02:05;7.15;;;3.92;;
79399;SDS011;68856;45.586;10.264;2023-08-31T11:04:09;7.07;;;3.25;;
79399;SDS011;68856;45.586;10.264;2023-08-31T11:06:35;5.10;;;2.47;;
79399;SDS011;68856;45.586;10.264;2023-08-31T11:09:02;4.32;;;2.35;;
79399;SDS011;68856;45.586;10.264;2023-08-31T11:11:29;4.55;;;2.20;;
79399;SDS011;68856;45.586;10.264;2023-08-31T11:14:03;5.75;;;2.25;;
79399;SDS011;68856;45.586;10.264;2023-08-31T11:16:29;6.32;;;2.35;;
79399;SDS011;68856;45.586;10.264;2023-08-31T11:18:56;5.63;;;2.42;;
79399;SDS011;68856;45.586;10.264;2023-08-31T11:21:22;3.60;;;2.42;;
79399;SDS011;68856;45.586;10.264;2023-08-31T11:23:48;5.20;;;3.00;;
79399;SDS011;68856;45.586;10.264;2023-08-31T11:26:14;3.97;;;2.58;;
79399;SDS011;68856;45.586;10.264;2023-08-31T11:28:43;4.10;;;2.50;;
79399;SDS011;68856;45.586;10.264;2023-08-31T11:31:11;4.22;;;2.35;;
79399;SDS011;68856;45.586;10.264;2023-08-31T11:33:37;3.83;;;2.55;;
79399;SDS011;68856;45.586;10.264;2023-08-31T11:36:03;3.78;;;2.63;;
79399;SDS011;68856;45.586;10.264;2023-08-31T11:38:29;7.10;;;2.60;;
79399;SDS011;68856;45.586;10.264;2023-08-31T11:40:58;3.55;;;2.15;;
79399;SDS011;68856;45.586;10.264;2023-08-31T11:43:24;5.07;;;2.72;;
79399;SDS011;68856;45.586;10.264;2023-08-31T11:45:50;6.68;;;3.25;;
79399;SDS011;68856;45.586;10.264;2023-08-31T11:48:17;6.60;;;2.80;;
79399;SDS011;68856;45.586;10.264;2023-08-31T11:50:43;3.47;;;2.20;;
79399;SDS011;68856;45.586;10.264;2023-08-31T11:53:09;4.22;;;2.72;;
79399;SDS011;68856;45.586;10.264;2023-08-31T11:55:36;4.53;;;2.40;;
79399;SDS011;68856;45.586;10.264;2023-08-31T11:58:02;4.43;;;3.03;;
79399;SDS011;68856;45.586;10.264;2023-08-31T12:00:29;5.60;;;2.90;;
79399;SDS011;68856;45.586;10.264;2023-08-31T12:02:58;3.13;;;2.25;;
79399;SDS011;68856;45.586;10.264;2023-08-31T12:05:25;4.20;;;3.30;;
79399;SDS011;68856;45.586;10.264;2023-08-31T12:07:53;3.95;;;2.58;;
79399;SDS011;68856;45.586;10.264;2023-08-31T12:10:19;4.40;;;3.40;;
79399;SDS011;68856;45.586;10.264;2023-08-31T12:12:46;5.03;;;3.20;;
79399;SDS011;68856;45.586;10.264;2023-08-31T12:15:12;5.72;;;2.55;;
79399;SDS011;68856;45.586;10.264;2023-08-31T12:17:38;4.18;;;2.50;;
79399;SDS011;68856;45.586;10.264;2023-08-31T12:20:05;3.42;;;2.42;;
79399;SDS011;68856;45.586;10.264;2023-08-31T12:22:32;4.22;;;2.40;;
79399;SDS011;68856;45.586;10.264;2023-08-31T12:24:58;5.10;;;3.00;;
79399;SDS011;68856;45.586;10.264;2023-08-31T12:27:24;8.43;;;2.60;;
79399;SDS011;68856;45.586;10.264;2023-08-31T12:29:51;7.53;;;2.88;;
79399;SDS011;68856;45.586;10.264;2023-08-31T12:32:17;7.28;;;2.85;;
79399;SDS011;68856;45.586;10.264;2023-08-31T12:34:43;4.85;;;3.00;;
79399;SDS011;68856;45.586;10.264;2023-08-31T12:37:09;5.95;;;2.53;;
79399;SDS011;68856;45.586;10.264;2023-08-31T12:39:36;4.78;;;2.83;;
79399;SDS011;68856;45.586;10.264;2023-08-31T12:42:02;6.95;;;2.72;;
79399;SDS011;68856;45.586;10.264;2023-08-31T12:44:29;8.45;;;3.13;;
79399;SDS011;68856;45.586;10.264;2023-08-31T12:46:56;3.90;;;2.30;;
79399;SDS011;68856;45.586;10.264;2023-08-31T12:49:22;3.80;;;2.72;;
79399;SDS011;68856;45.586;10.264;2023-08-31T12:51:48;2.67;;;2.25;;
79399;SDS011;68856;45.586;10.264;2023-08-31T12:54:15;5.63;;;2.72;;
79399;SDS011;68856;45.586;10.264;2023-08-31T12:56:42;3.95;;;2.38;;
79399;SDS011;68856;45.586;10.264;2023-08-31T12:59:08;5.93;;;2.28;;
79399;SDS011;68856;45.586;10.264;2023-08-31T13:01:34;4.10;;;2.30;;
79399;SDS011;68856;45.586;10.264;2023-08-31T13:04:00;3.88;;;2.10;;
79399;SDS011;68856;45.586;10.264;2023-08-31T13:06:28;6.88;;;2.58;;
79399;SDS011;68856;45.586;10.264;2023-08-31T13:08:54;4.20;;;1.88;;
79399;SDS011;68856;45.586;10.264;2023-08-31T13:11:20;6.97;;;2.30;;
79399;SDS011;68856;45.586;10.264;2023-08-31T13:13:49;4.70;;;2.25;;
79399;SDS011;68856;45.586;10.264;2023-08-31T13:16:18;4.28;;;2.33;;
79399;SDS011;68856;45.586;10.264;2023-08-31T13:18:47;5.63;;;2.30;;
79399;SDS011;68856;45.586;10.264;2023-08-31T13:21:13;3.47;;;2.10;;
79399;SDS011;68856;45.586;10.264;2023-08-31T13:23:39;5.13;;;2.30;;
79399;SDS011;68856;45.586;10.264;2023-08-31T13:26:08;3.42;;;2.63;;
79399;SDS011;68856;45.586;10.264;2023-08-31T13:28:34;4.18;;;2.47;;
79399;SDS011;68856;45.586;10.264;2023-08-31T13:31:00;5.97;;;2.53;;
79399;SDS011;68856;45.586;10.264;2023-08-31T13:33:28;6.05;;;2.53;;
79399;SDS011;68856;45.586;10.264;2023-08-31T13:35:58;3.50;;;2.50;;
79399;SDS011;68856;45.586;10.264;2023-08-31T13:38:24;6.53;;;2.13;;
79399;SDS011;68856;45.586;10.264;2023-08-31T13:40:54;6.75;;;2.33;;
79399;SDS011;68856;45.586;10.264;2023-08-31T13:43:22;6.50;;;2.15;;
79399;SDS011;68856;45.586;10.264;2023-08-31T13:45:48;7.30;;;2.13;;
79399;SDS011;68856;45.586;10.264;2023-08-31T13:48:15;3.78;;;2.20;;
79399;SDS011;68856;45.586;10.264;2023-08-31T13:50:41;3.58;;;2.08;;
79399;SDS011;68856;45.586;10.264;2023-08-31T13:53:07;5.03;;;2.53;;
79399;SDS011;68856;45.586;10.264;2023-08-31T13:55:33;2.40;;;2.10;;
79399;SDS011;68856;45.586;10.264;2023-08-31T13:58:03;4.95;;;1.60;;
79399;SDS011;68856;45.586;10.264;2023-08-31T14:00:31;4.70;;;2.28;;
79399;SDS011;68856;45.586;10.264;2023-08-31T14:02:57;6.40;;;1.80;;
79399;SDS011;68856;45.586;10.264;2023-08-31T14:07:53;7.85;;;2.25;;
79399;SDS011;68856;45.586;10.264;2023-08-31T14:10:19;5.43;;;2.38;;
79399;SDS011;68856;45.586;10.264;2023-08-31T14:12:46;6.28;;;2.38;;
79399;SDS011;68856;45.586;10.264;2023-08-31T14:15:12;7.00;;;2.45;;
79399;SDS011;68856;45.586;10.264;2023-08-31T14:17:38;3.90;;;1.77;;
79399;SDS011;68856;45.586;10.264;2023-08-31T14:20:05;5.80;;;1.80;;
79399;SDS011;68856;45.586;10.264;2023-08-31T14:22:34;6.20;;;1.80;;
79399;SDS011;68856;45.586;10.264;2023-08-31T14:25:00;3.47;;;1.48;;
79399;SDS011;68856;45.586;10.264;2023-08-31T14:27:27;3.30;;;1.83;;
79399;SDS011;68856;45.586;10.264;2023-08-31T14:29:55;3.78;;;1.70;;
79399;SDS011;68856;45.586;10.264;2023-08-31T14:32:21;3.15;;;2.30;;
79399;SDS011;68856;45.586;10.264;2023-08-31T14:34:47;3.65;;;2.20;;
79399;SDS011;68856;45.586;10.264;2023-08-31T14:37:13;4.07;;;2.33;;
79399;SDS011;68856;45.586;10.264;2023-08-31T14:39:40;4.93;;;2.13;;
79399;SDS011;68856;45.586;10.264;2023-08-31T14:42:06;6.80;;;2.42;;
79399;SDS011;68856;45.586;10.264;2023-08-31T14:44:33;3.58;;;2.10;;
79399;SDS011;68856;45.586;10.264;2023-08-31T14:46:59;9.40;;;2.63;;
79399;SDS011;68856;45.586;10.264;2023-08-31T14:49:25;6.25;;;2.70;;